Time,TemperatureF,DewpointF,PressureIn,WindDirection,WindDirectionDegrees,WindSpeedMPH,WindSpeedGustMPH,Humidity,HourlyPrecipIn,Conditions,Clouds,dailyrainin,SoftwareType,DateUTC
2013-07-19 00:01:00,65.0,52.0,-100.00,North,352,3.0,5.0,62,0.00,,,0.00,,2013-07-19 06:01:00,
2013-07-19 00:11:00,65.0,52.0,-100.00,North,352,3.0,5.0,62,0.00,,,0.00,,2013-07-19 06:11:00,
2013-07-19 00:22:00,65.0,52.0,-100.00,North,352,3.0,5.0,62,0.00,,,0.00,,2013-07-19 06:22:00,
2013-07-19 00:33:00,65.0,52.0,-100.00,North,352,3.0,5.0,62,0.00,,,0.00,,2013-07-19 06:33:00,
2013-07-19 00:40:00,61.0,50.0,-100.00,NNW,330,2.0,5.0,68,0.00,,,0.00,,2013-07-19 06:40:00,
2013-07-19 01:01:00,61.0,50.0,-100.00,NNW,330,2.0,5.0,68,0.00,,,0.00,,2013-07-19 07:01:00,
2013-07-19 01:12:00,61.0,50.0,-100.00,NNW,330,2.0,5.0,68,0.00,,,0.00,,2013-07-19 07:12:00,
2013-07-19 01:22:00,61.0,50.0,-100.00,NNW,330,2.0,5.0,68,0.00,,,0.00,,2013-07-19 07:22:00,
2013-07-19 01:32:00,61.0,50.0,-100.00,NNW,330,2.0,5.0,68,0.00,,,0.00,,2013-07-19 07:32:00,
2013-07-19 01:40:00,59.0,51.0,-100.00,NNW,344,2.0,3.0,74,0.00,,,-99.99,,2013-07-19 07:40:00,
2013-07-19 02:11:00,59.0,51.0,-100.00,NNW,344,2.0,3.0,74,0.00,,,-99.99,,2013-07-19 08:11:00,
2013-07-19 02:22:00,59.0,51.0,-100.00,NNW,344,2.0,3.0,74,0.00,,,-99.99,,2013-07-19 08:22:00,
2013-07-19 02:32:00,59.0,51.0,-100.00,NNW,344,2.0,3.0,74,0.00,,,-99.99,,2013-07-19 08:32:00,
2013-07-19 02:40:00,58.0,50.0,-100.00,NW,321,2.0,3.0,75,0.00,,,-99.99,,2013-07-19 08:40:00,
2013-07-19 03:11:00,58.0,50.0,-100.00,NW,321,2.0,3.0,75,0.00,,,-99.99,,2013-07-19 09:11:00,
2013-07-19 03:22:00,58.0,50.0,-100.00,NW,321,2.0,3.0,75,0.00,,,-99.99,,2013-07-19 09:22:00,
2013-07-19 03:32:00,58.0,50.0,-100.00,NW,321,2.0,3.0,75,0.00,,,-99.99,,2013-07-19 09:32:00,
2013-07-19 03:40:00,57.0,50.0,-100.00,NW,315,2.0,4.0,78,0.00,,,0.00,,2013-07-19 09:40:00,
2013-07-19 04:01:00,57.0,50.0,-100.00,NW,315,2.0,4.0,78,0.00,,,0.00,,2013-07-19 10:01:00,
2013-07-19 04:11:00,57.0,50.0,-100.00,NW,315,2.0,4.0,78,0.00,,,0.00,,2013-07-19 10:11:00,
2013-07-19 04:22:00,57.0,50.0,-100.00,NW,315,2.0,4.0,78,0.00,,,0.00,,2013-07-19 10:22:00,
2013-07-19 04:32:00,57.0,50.0,-100.00,NW,315,2.0,4.0,78,0.00,,,0.00,,2013-07-19 10:32:00,
2013-07-19 04:40:00,56.0,50.0,-100.00,North,3,1.0,3.0,81,0.00,,,0.00,,2013-07-19 10:40:00,
2013-07-19 05:02:00,56.0,50.0,-100.00,North,3,1.0,3.0,81,0.00,,,0.00,,2013-07-19 11:02:00,
2013-07-19 05:12:00,56.0,50.0,-100.00,North,3,1.0,3.0,81,0.00,,,0.00,,2013-07-19 11:12:00,
2013-07-19 05:22:00,56.0,50.0,-100.00,North,3,1.0,3.0,81,0.00,,,0.00,,2013-07-19 11:22:00,
2013-07-19 05:33:00,56.0,50.0,-100.00,North,3,1.0,3.0,81,0.00,,,0.00,,2013-07-19 11:33:00,
2013-07-19 05:40:00,54.0,50.0,-100.00,NNE,16,0.0,3.0,85,0.00,,,0.00,,2013-07-19 11:40:00,
2013-07-19 06:12:00,54.0,50.0,-100.00,NNE,16,0.0,3.0,85,0.00,,,0.00,,2013-07-19 12:12:00,
2013-07-19 06:22:00,54.0,50.0,-100.00,NNE,16,0.0,3.0,85,0.00,,,0.00,,2013-07-19 12:22:00,
2013-07-19 06:33:00,54.0,50.0,-100.00,NNE,16,0.0,3.0,85,0.00,,,0.00,,2013-07-19 12:33:00,
2013-07-19 06:40:00,55.0,51.0,-100.00,North,357,1.0,2.0,87,0.00,,,0.00,,2013-07-19 12:40:00,
2013-07-19 07:12:00,55.0,51.0,-100.00,North,357,1.0,2.0,87,0.00,,,0.00,,2013-07-19 13:12:00,
2013-07-19 07:22:00,55.0,51.0,-100.00,North,357,1.0,2.0,87,0.00,,,0.00,,2013-07-19 13:22:00,
2013-07-19 07:32:00,55.0,51.0,-100.00,North,357,1.0,2.0,87,0.00,,,0.00,,2013-07-19 13:32:00,
2013-07-19 07:40:00,62.0,53.0,-100.00,North,354,2.0,4.0,73,0.00,,,-99.99,,2013-07-19 13:40:00,
2013-07-19 08:11:00,62.0,53.0,-100.00,North,354,2.0,4.0,73,0.00,,,-99.99,,2013-07-19 14:11:00,
2013-07-19 08:22:00,62.0,53.0,-100.00,North,354,2.0,4.0,73,0.00,,,-99.99,,2013-07-19 14:22:00,
2013-07-19 08:33:00,62.0,53.0,-100.00,North,354,2.0,4.0,73,0.00,,,-99.99,,2013-07-19 14:33:00,
2013-07-19 08:40:00,66.0,53.0,-100.00,ENE,78,2.0,5.0,64,0.00,,,0.00,,2013-07-19 14:40:00,
2013-07-19 09:02:00,66.0,53.0,-100.00,ENE,78,2.0,5.0,64,0.00,,,0.00,,2013-07-19 15:02:00,
2013-07-19 09:11:00,66.0,53.0,-100.00,ENE,78,2.0,5.0,64,0.00,,,0.00,,2013-07-19 15:11:00,
2013-07-19 09:22:00,66.0,53.0,-100.00,ENE,78,2.0,5.0,64,0.00,,,0.00,,2013-07-19 15:22:00,
2013-07-19 09:32:00,66.0,53.0,-100.00,ENE,78,2.0,5.0,64,0.00,,,0.00,,2013-07-19 15:32:00,
2013-07-19 09:40:00,70.0,53.0,-100.00,ESE,108,3.0,5.0,55,0.00,,,0.00,,2013-07-19 15:40:00,
2013-07-19 10:01:00,70.0,53.0,-100.00,ESE,108,3.0,5.0,55,0.00,,,0.00,,2013-07-19 16:01:00,
2013-07-19 10:11:00,70.0,53.0,-100.00,ESE,108,3.0,5.0,55,0.00,,,0.00,,2013-07-19 16:11:00,
2013-07-19 10:22:00,70.0,53.0,-100.00,ESE,108,3.0,5.0,55,0.00,,,0.00,,2013-07-19 16:22:00,
2013-07-19 10:32:00,70.0,53.0,-100.00,ESE,108,3.0,5.0,55,0.00,,,0.00,,2013-07-19 16:32:00,
2013-07-19 10:40:00,74.0,54.0,-100.00,SSE,158,3.0,7.0,49,0.00,,,0.00,,2013-07-19 16:40:00,
2013-07-19 11:12:00,74.0,54.0,-100.00,SSE,158,3.0,7.0,49,0.00,,,0.00,,2013-07-19 17:12:00,
2013-07-19 11:22:00,74.0,54.0,-100.00,SSE,158,3.0,7.0,49,0.00,,,0.00,,2013-07-19 17:22:00,
2013-07-19 11:32:00,74.0,54.0,-100.00,SSE,158,3.0,7.0,49,0.00,,,0.00,,2013-07-19 17:32:00,
2013-07-19 11:40:00,78.0,50.0,-100.00,ESE,103,3.0,9.0,37,0.00,,,-99.99,,2013-07-19 17:40:00,
2013-07-19 12:01:00,78.0,50.0,-100.00,ESE,103,3.0,9.0,37,0.00,,,-99.99,,2013-07-19 18:01:00,
2013-07-19 12:11:00,78.0,50.0,-100.00,ESE,103,3.0,9.0,37,0.00,,,-99.99,,2013-07-19 18:11:00,
2013-07-19 12:22:00,78.0,50.0,-100.00,ESE,103,3.0,9.0,37,0.00,,,-99.99,,2013-07-19 18:22:00,
2013-07-19 12:32:00,78.0,50.0,-100.00,ESE,103,3.0,9.0,37,0.00,,,-99.99,,2013-07-19 18:32:00,
2013-07-19 12:40:00,73.0,49.0,-100.00,East,92,1.0,8.0,43,0.00,,,0.00,,2013-07-19 18:40:00,
2013-07-19 13:01:00,73.0,49.0,-100.00,East,92,1.0,8.0,43,0.00,,,0.00,,2013-07-19 19:01:00,
2013-07-19 13:11:00,73.0,49.0,-100.00,East,92,1.0,8.0,43,0.00,,,0.00,,2013-07-19 19:11:00,
2013-07-19 13:21:00,73.0,49.0,-100.00,East,92,1.0,8.0,43,0.00,,,0.00,,2013-07-19 19:21:00,
2013-07-19 13:32:00,73.0,49.0,-100.00,East,92,1.0,8.0,43,0.00,,,0.00,,2013-07-19 19:32:00,
2013-07-19 14:40:00,65.0,51.0,-100.00,ENE,69,2.0,7.0,61,-99.99,,,0.01,,2013-07-19 20:40:00,
2013-07-19 15:32:00,65.0,51.0,-100.00,ENE,69,2.0,7.0,61,-99.99,,,0.01,,2013-07-19 21:32:00,
2013-07-19 15:40:00,63.0,53.0,-100.00,WSW,241,3.0,10.0,71,0.04,,,0.05,,2013-07-19 21:40:00,
2013-07-19 16:11:00,63.0,53.0,-100.00,WSW,241,3.0,10.0,71,0.04,,,0.05,,2013-07-19 22:11:00,
2013-07-19 16:21:00,63.0,53.0,-100.00,WSW,241,3.0,10.0,71,0.04,,,0.05,,2013-07-19 22:21:00,
2013-07-19 16:32:00,63.0,53.0,-100.00,WSW,241,3.0,10.0,71,0.04,,,0.05,,2013-07-19 22:32:00,
2013-07-19 16:40:00,62.0,53.0,-100.00,NNW,336,3.0,8.0,73,0.01,,,0.06,,2013-07-19 22:40:00,
2013-07-19 17:11:00,62.0,53.0,-100.00,NNW,336,3.0,8.0,73,0.01,,,0.06,,2013-07-19 23:11:00,
2013-07-19 17:21:00,62.0,53.0,-100.00,NNW,336,3.0,8.0,73,0.01,,,0.06,,2013-07-19 23:21:00,
2013-07-19 17:32:00,62.0,53.0,-100.00,NNW,336,3.0,8.0,73,0.01,,,0.06,,2013-07-19 23:32:00,
2013-07-19 17:40:00,61.0,53.0,-100.00,NNW,337,4.0,8.0,76,0.06,,,0.12,,2013-07-19 23:40:00,
2013-07-19 18:01:00,61.0,53.0,-100.00,NNW,337,4.0,8.0,76,0.06,,,0.12,,2013-07-20 00:01:00,
2013-07-19 18:11:00,61.0,53.0,-100.00,NNW,337,4.0,8.0,76,0.06,,,0.12,,2013-07-20 00:11:00,
2013-07-19 18:22:00,61.0,53.0,-100.00,NNW,337,4.0,8.0,76,0.06,,,0.12,,2013-07-20 00:22:00,
2013-07-19 18:32:00,61.0,53.0,-100.00,NNW,337,4.0,8.0,76,0.06,,,0.12,,2013-07-20 00:32:00,
2013-07-19 19:11:00,64.0,53.0,-100.00,NW,320,1.0,8.0,68,0.00,,,0.12,,2013-07-20 01:11:00,
2013-07-19 19:22:00,64.0,53.0,-100.00,NW,320,1.0,8.0,68,0.00,,,0.12,,2013-07-20 01:22:00,
2013-07-19 19:32:00,64.0,53.0,-100.00,NW,320,1.0,8.0,68,0.00,,,0.12,,2013-07-20 01:32:00,
2013-07-19 20:11:00,63.0,52.0,-100.00,NNE,13,2.0,8.0,67,0.00,,,0.12,,2013-07-20 02:11:00,
2013-07-19 20:22:00,63.0,52.0,-100.00,NNE,13,2.0,8.0,67,0.00,,,0.12,,2013-07-20 02:22:00,
2013-07-19 20:32:00,63.0,52.0,-100.00,NNE,13,2.0,8.0,67,0.00,,,0.12,,2013-07-20 02:32:00,
2013-07-19 21:11:00,63.0,48.0,-100.00,NNE,17,3.0,9.0,59,0.01,,,0.13,,2013-07-20 03:11:00,
2013-07-19 21:22:00,63.0,48.0,-100.00,NNE,17,3.0,9.0,59,0.01,,,0.13,,2013-07-20 03:22:00,
2013-07-19 21:32:00,63.0,48.0,-100.00,NNE,17,3.0,9.0,59,0.01,,,0.13,,2013-07-20 03:32:00,
2013-07-19 22:02:00,61.0,48.0,-100.00,NNE,12,2.0,8.0,62,0.00,,,0.13,,2013-07-20 04:02:00,
2013-07-19 22:12:00,61.0,48.0,-100.00,NNE,12,2.0,8.0,62,0.00,,,0.13,,2013-07-20 04:12:00,
2013-07-19 22:22:00,61.0,48.0,-100.00,NNE,12,2.0,8.0,62,0.00,,,0.13,,2013-07-20 04:22:00,
2013-07-19 22:33:00,61.0,48.0,-100.00,NNE,12,2.0,8.0,62,0.00,,,0.13,,2013-07-20 04:33:00,
2013-07-19 23:12:00,59.0,50.0,-100.00,NNW,333,2.0,4.0,72,0.00,,,0.13,,2013-07-20 05:12:00,
2013-07-19 23:22:00,59.0,50.0,-100.00,NNW,333,2.0,4.0,72,0.00,,,0.13,,2013-07-20 05:22:00,
2013-07-19 23:32:00,59.0,50.0,-100.00,NNW,333,2.0,4.0,72,0.00,,,0.13,,2013-07-20 05:32:00,